Time;durP1;ratioP1;P1;durP2;ratioP2;P2;SDS_P1;SDS_P2;PMS_P1;PMS_P2;Temp;Humidity;BMP_temperature;BMP_pressure;BME280_temperature;BME280_humidity;BME280_pressure;Samples;Min_cycle;Max_cycle;Signal;HPM_P1;HPM_P2
2023/01/17 00:02:23;;;;;;;1.10;0.93;;;3.10;83.20;;;6.23;49.78;94817.75;5029727;28;20076;-41
2023/01/17 00:10:27;;;;;;;2.10;0.90;;;3.20;81.80;;;6.31;49.06;94846.59;5030038;28;20045;-41
2023/01/17 00:12:58;;;;;;;2.30;1.00;;;3.20;81.50;;;6.28;49.85;94847.00;5031073;28;20527;-41
2023/01/17 00:15:30;;;;;;;1.47;1.00;;;3.20;81.30;;;6.29;49.73;94849.44;5033290;28;20492;-41
2023/01/17 00:17:58;;;;;;;1.30;1.00;;;3.20;81.20;;;6.39;49.92;94853.50;5034284;28;20049;-41
2023/01/17 00:26:14;;;;;;;1.13;0.87;;;3.30;81.40;;;6.59;49.24;94851.69;5034292;28;20037;-41
2023/01/17 01:33:51;;;;;;;1.43;1.20;;;3.00;77.70;;;6.17;48.26;94909.19;5025620;28;20041;-41
2023/01/17 01:36:19;;;;;;;2.40;1.03;;;3.00;77.60;;;6.19;48.33;94903.72;5032775;28;20060;-40
2023/01/17 01:38:47;;;;;;;2.40;1.40;;;3.10;77.20;;;6.19;48.58;94912.44;5032426;28;20049;-40
2023/01/17 01:41:15;;;;;;;3.23;1.43;;;3.10;77.40;;;6.30;48.02;94916.31;5032670;28;20065;-42
2023/01/17 01:43:54;;;;;;;3.47;1.70;;;3.10;77.30;;;6.37;48.52;94916.31;5032357;28;20048;-41
2023/01/17 01:46:40;;;;;;;4.53;1.50;;;3.20;76.60;;;6.45;48.40;94910.84;5032735;28;20044;-40
2023/01/17 01:49:20;;;;;;;3.60;2.20;;;3.20;76.20;;;6.43;48.08;94918.16;5032492;28;20061;-40
2023/01/17 01:51:59;;;;;;;2.80;1.30;;;3.20;74.80;;;6.46;48.03;94921.22;5007903;28;20045;-41
2023/01/17 01:54:35;;;;;;;3.60;1.17;;;3.20;75.80;;;6.53;47.67;94917.75;5032589;28;20057;-40
2023/01/17 01:57:07;;;;;;;1.60;1.30;;;3.30;76.00;;;6.54;47.41;94920.22;5015610;28;20054;-41
2023/01/17 01:59:43;;;;;;;1.90;1.27;;;3.30;75.40;;;6.55;47.83;94927.09;5032203;28;20512;-41
2023/01/17 02:02:11;;;;;;;3.80;1.20;;;3.20;75.80;;;6.60;47.60;94922.03;5028423;28;20054;-41
2023/01/17 02:04:39;;;;;;;1.70;1.10;;;3.30;75.40;;;6.63;47.47;94910.22;5030900;28;20052;-41
2023/01/17 02:07:15;;;;;;;1.60;1.07;;;3.30;76.20;;;6.63;48.03;94905.78;5031231;28;20048;-41
2023/01/17 02:09:44;;;;;;;2.00;1.00;;;3.30;75.50;;;6.68;47.74;94905.97;5030696;28;20044;-41
2023/01/17 02:12:12;;;;;;;3.20;1.40;;;3.30;74.60;;;6.67;47.35;94917.56;5030993;28;20100;-41
2023/01/17 02:14:41;;;;;;;3.80;1.50;;;3.30;74.70;;;6.67;47.56;94919.41;5030756;28;20042;-40
2023/01/17 02:17:14;;;;;;;2.57;1.40;;;3.40;74.70;;;6.73;47.15;94923.03;5032139;28;20046;-40
2023/01/17 02:20:17;;;;;;;2.72;1.00;;;3.40;74.70;;;6.70;47.14;94916.34;5030777;28;20052;-41
2023/01/17 02:23:09;;;;;;;1.83;1.00;;;3.40;74.20;;;6.74;47.65;94920.19;5031893;28;20049;-41
2023/01/17 02:25:46;;;;;;;2.63;1.20;;;3.40;73.70;;;6.75;47.03;94919.19;5031669;28;20057;-41
2023/01/17 02:28:36;;;;;;;1.40;1.17;;;3.40;74.60;;;6.77;46.62;94905.78;5030604;28;20049;-40
2023/01/17 02:31:41;;;;;;;2.50;1.13;;;3.40;74.50;;;6.71;47.33;94915.34;5011703;28;20045;-41
2023/01/17 02:34:18;;;;;;;;;;;3.40;75.20;;;6.76;46.97;94912.06;5009585;28;20049;-41
2023/01/17 02:36:56;;;;;;;2.13;1.60;;;3.40;74.90;;;6.81;47.14;94917.56;5030046;28;19935;-40
2023/01/17 02:39:33;;;;;;;2.47;1.30;;;3.30;75.70;;;6.77;46.93;94913.72;5030282;28;20045;-40
2023/01/17 02:42:09;;;;;;;3.97;1.17;;;3.30;75.80;;;6.78;47.63;94907.38;5030427;28;20402;-40
2023/01/17 02:44:41;;;;;;;2.33;1.40;;;3.30;75.80;;;6.79;47.54;94914.31;5030025;28;20528;-41
2023/01/17 02:47:26;;;;;;;1.87;1.17;;;3.40;76.00;;;6.78;47.04;94904.75;5014299;28;20049;-41
2023/01/17 02:50:17;;;;;;;;;;;3.40;75.70;;;6.79;47.16;94907.19;5024590;28;20409;-41
2023/01/17 02:53:05;;;;;;;2.30;1.63;;;3.40;75.90;;;6.80;47.20;94913.28;5030903;28;20114;-40
2023/01/17 02:55:57;;;;;;;3.37;1.40;;;3.30;76.70;;;6.80;47.75;94913.28;5030460;28;20041;-40
2023/01/17 02:59:05;;;;;;;2.00;1.20;;;3.40;76.50;;;6.77;47.55;94916.34;5031121;28;20052;-41
2023/01/17 03:02:20;;;;;;;1.43;1.10;;;3.40;75.90;;;6.79;47.59;94912.47;5031069;28;20056;-41
2023/01/17 03:05:00;;;;;;;2.42;1.10;;;3.40;76.20;;;6.82;47.60;94911.25;5015539;28;20085;-41
2023/01/17 03:07:30;;;;;;;2.20;1.30;;;3.40;76.50;;;6.82;47.49;94900.66;5029251;28;20046;-41
2023/01/17 03:10:02;;;;;;;2.27;1.10;;;3.40;76.70;;;6.83;47.50;94904.97;5029694;28;20048;-40
2023/01/17 03:12:34;;;;;;;2.33;1.00;;;3.40;76.90;;;6.84;47.45;94903.94;5029888;28;20053;-41
2023/01/17 03:15:03;;;;;;;5.03;1.10;;;3.40;76.90;;;6.82;47.75;94912.06;5030093;28;20046;-41
2023/01/17 03:17:32;;;;;;;1.50;1.20;;;3.40;76.80;;;6.81;47.41;94910.44;5031056;28;20077;-41
2023/01/17 03:19:59;;;;;;;3.17;1.17;;;3.40;77.00;;;6.82;47.44;94911.25;5030793;28;20049;-40
2023/01/17 03:22:27;;;;;;;2.17;1.10;;;3.40;77.10;;;6.82;47.78;94911.25;5030887;28;20497;-41
2023/01/17 03:24:56;;;;;;;2.73;1.17;;;3.40;77.20;;;6.81;48.14;94915.72;5031257;28;20037;-40
2023/01/17 03:27:24;;;;;;;3.17;1.30;;;3.40;77.50;;;6.82;47.82;94913.91;5031045;28;20049;-41
2023/01/17 03:29:52;;;;;;;1.53;1.07;;;3.40;77.70;;;6.82;47.77;94916.53;5022955;28;20041;-41
2023/01/17 03:32:20;;;;;;;1.97;1.23;;;3.40;77.80;;;6.83;48.29;94932.22;5030936;28;20048;-41
2023/01/17 03:34:47;;;;;;;1.77;0.97;;;3.40;78.20;;;6.84;48.00;94935.66;5030692;28;20419;-40
2023/01/17 03:37:15;;;;;;;1.27;0.90;;;3.40;79.50;;;6.83;48.86;94934.84;5031029;28;20053;-41
2023/01/17 03:39:43;;;;;;;1.20;0.87;;;3.50;79.80;;;6.78;48.42;94937.28;5030619;28;20049;-40
2023/01/17 03:42:11;;;;;;;1.83;1.10;;;3.40;81.30;;;6.75;49.21;94943.00;5030602;28;20056;-41
2023/01/17 03:44:39;;;;;;;1.60;1.07;;;3.40;83.20;;;6.73;49.13;94934.47;5030712;28;20523;-41
2023/01/17 03:47:10;;;;;;;1.47;1.13;;;3.30;85.00;;;6.71;50.25;94939.13;5030856;28;20080;-41
2023/01/17 03:49:39;;;;;;;1.63;1.10;;;3.30;86.30;;;6.68;49.82;94931.59;5033717;28;20042;-41
2023/01/17 03:52:07;;;;;;;1.17;1.00;;;3.20;86.90;;;6.68;50.21;94928.94;5033634;28;20045;-41
2023/01/17 03:54:34;;;;;;;1.47;1.00;;;3.20;87.10;;;6.56;49.97;94923.47;5034783;28;20060;-40
2023/01/17 03:57:02;;;;;;;1.63;1.10;;;3.10;87.10;;;6.53;50.53;94923.84;5034865;28;20049;-41
2023/01/17 03:59:32;;;;;;;1.20;1.10;;;3.10;86.80;;;6.53;50.39;94925.69;5034438;28;20053;-40
2023/01/17 04:02:00;;;;;;;1.33;1.10;;;3.10;86.60;;;6.50;50.06;94922.44;5049530;28;20050;-47
2023/01/17 04:04:28;;;;;;;1.30;1.07;;;3.10;87.30;;;6.46;50.62;94929.16;5033420;28;20412;-40
2023/01/17 04:06:56;;;;;;;3.07;1.53;;;3.00;86.80;;;6.39;49.98;94923.03;5034083;28;20041;-41
2023/01/17 04:09:24;;;;;;;1.10;0.93;;;2.90;86.60;;;6.30;49.85;94913.66;5034569;28;20038;-41
2023/01/17 04:11:52;;;;;;;2.77;1.30;;;2.90;86.40;;;6.22;49.96;94911.22;5034365;28;20065;-40
2023/01/17 04:14:19;;;;;;;2.30;1.10;;;2.80;86.70;;;6.15;50.27;94918.34;5034472;28;20052;-41
2023/01/17 04:16:47;;;;;;;2.40;1.30;;;2.70;86.80;;;6.13;50.56;94917.69;5034253;28;20060;-40
2023/01/17 04:19:16;;;;;;;1.63;1.00;;;2.70;87.10;;;6.13;50.00;94915.88;5033051;28;20048;-41
2023/01/17 04:21:43;;;;;;;2.97;1.30;;;2.70;87.00;;;6.10;50.63;94919.72;5034121;28;20060;-41
2023/01/17 04:24:11;;;;;;;2.07;1.20;;;2.70;87.00;;;6.13;50.98;94921.16;5034277;28;20053;-38
2023/01/17 04:26:39;;;;;;;2.43;1.17;;;2.70;87.00;;;6.17;50.62;94919.75;5034225;28;20049;-38
2023/01/17 04:29:07;;;;;;;2.27;1.30;;;2.70;86.70;;;6.20;50.54;94913.25;5034052;28;20054;-41
2023/01/17 04:31:34;;;;;;;2.10;0.90;;;2.70;86.60;;;6.23;50.46;94918.94;5033886;28;20041;-40
2023/01/17 04:34:02;;;;;;;1.63;1.10;;;2.80;86.20;;;6.27;49.89;94919.38;5034053;28;20505;-40
2023/01/17 04:36:31;;;;;;;1.37;0.97;;;2.80;85.80;;;6.28;50.24;94921.81;5033952;28;20045;-41
2023/01/17 04:38:58;;;;;;;2.63;1.10;;;2.80;85.20;;;6.27;49.77;94928.09;5033771;28;20060;-40
2023/01/17 04:41:26;;;;;;;2.50;1.00;;;2.80;84.70;;;6.27;49.98;94928.09;5033834;28;20053;-41
2023/01/17 04:43:54;;;;;;;1.23;0.77;;;2.80;83.70;;;6.31;50.14;94933.81;5033872;28;20037;-41
2023/01/17 04:46:22;;;;;;;1.20;1.00;;;2.80;82.70;;;6.32;49.24;94930.16;5033736;28;20057;-40
2023/01/17 04:48:50;;;;;;;2.07;0.87;;;2.80;81.70;;;6.31;48.58;94936.44;5031584;28;20531;-40
2023/01/17 04:51:17;;;;;;;1.27;1.07;;;2.80;80.60;;;6.31;48.58;94939.09;5033637;28;20041;-41
2023/01/17 04:53:46;;;;;;;1.80;1.13;;;2.80;80.20;;;6.25;48.62;94935.41;5033734;28;20057;-41
2023/01/17 04:56:14;;;;;;;0.90;0.60;;;2.80;79.90;;;6.20;48.81;94932.53;5033730;28;20502;-41
2023/01/17 04:58:41;;;;;;;1.67;0.97;;;2.80;78.80;;;6.13;48.67;94933.53;5032711;28;20057;-40
2023/01/17 05:01:09;;;;;;;1.87;0.70;;;2.70;78.20;;;6.12;48.74;94932.72;5032080;28;20508;-41
2023/01/17 05:03:37;;;;;;;0.77;0.50;;;2.70;78.50;;;6.10;47.54;94930.28;5031038;28;20042;-41
2023/01/17 05:06:05;;;;;;;0.80;0.70;;;2.70;77.10;;;6.08;47.63;94934.16;5032361;28;20052;-41
2023/01/17 05:08:32;;;;;;;0.73;0.60;;;2.60;76.10;;;6.06;47.51;94931.69;5033211;28;20053;-40
2023/01/17 05:11:00;;;;;;;1.40;0.80;;;2.60;75.30;;;6.04;47.66;94933.72;5033401;28;20045;-40
2023/01/17 05:13:28;;;;;;;1.17;0.90;;;2.60;74.80;;;5.99;47.92;94943.25;5033264;28;20034;-40
2023/01/17 05:15:57;;;;;;;1.20;0.90;;;2.60;75.10;;;5.95;47.80;94934.09;5033301;28;20042;-41
2023/01/17 05:18:25;;;;;;;0.80;0.70;;;2.60;75.10;;;5.91;47.52;94936.31;5031781;28;20049;-40
2023/01/17 05:20:52;;;;;;;2.07;0.90;;;2.50;75.80;;;5.85;48.10;94931.81;5032873;28;20394;-41
2023/01/17 05:23:20;;;;;;;1.87;1.10;;;2.50;76.20;;;5.83;48.07;94928.56;5033571;28;20048;-41
2023/01/17 05:25:48;;;;;;;2.07;0.97;;;2.40;76.20;;;5.79;47.49;94929.97;5032985;28;20049;-40
2023/01/17 05:28:15;;;;;;;4.73;2.00;;;2.40;76.10;;;5.76;47.36;94925.91;5031863;28;20046;-41
2023/01/17 05:30:43;;;;;;;4.17;2.50;;;2.40;76.40;;;5.72;47.73;94924.69;5032768;28;20045;-41
2023/01/17 05:33:11;;;;;;;23.93;9.60;;;2.30;76.50;;;5.68;47.43;94926.91;5031724;28;20052;-40
2023/01/17 05:35:39;;;;;;;11.97;6.23;;;2.30;76.70;;;5.64;47.59;94932.75;5032578;28;20493;-40
2023/01/17 05:38:07;;;;;;;12.13;5.40;;;2.20;76.70;;;5.59;47.87;94927.25;5032906;28;20045;-41
2023/01/17 05:40:35;;;;;;;3.00;2.13;;;2.20;77.00;;;5.55;47.61;94933.94;5031274;28;20053;-41
2023/01/17 05:43:03;;;;;;;2.43;1.87;;;2.10;77.30;;;5.52;47.56;94925.41;5031748;28;20053;-40
2023/01/17 05:45:32;;;;;;;4.07;1.30;;;2.10;77.30;;;5.48;47.56;94918.88;5032619;28;20048;-40
2023/01/17 05:48:01;;;;;;;2.07;1.27;;;2.10;77.50;;;5.44;48.14;94916.84;5024942;28;20060;-41
2023/01/17 05:50:36;;;;;;;1.97;0.90;;;2.00;77.20;;;5.45;48.15;94915.84;5032356;28;20038;-40
2023/01/17 05:53:10;;;;;;;2.10;1.10;;;2.10;76.70;;;5.46;47.37;94906.88;5024017;28;20049;-41
2023/01/17 05:55:39;;;;;;;2.30;1.30;;;2.10;75.00;;;5.47;47.13;94898.78;5031451;28;20049;-40
2023/01/17 05:58:18;;;;;;;3.70;1.17;;;2.20;74.70;;;5.48;47.02;94894.31;5032335;28;20516;-40
2023/01/17 06:00:46;;;;;;;2.23;1.37;;;2.20;74.10;;;5.52;47.00;94892.91;5032303;28;20064;-40
2023/01/17 06:03:15;;;;;;;1.97;1.47;;;2.20;74.20;;;5.50;47.65;94893.09;5031342;28;20050;-41
2023/01/17 06:05:43;;;;;;;2.30;1.53;;;2.20;74.20;;;5.47;47.44;94890.88;5031789;28;20041;-41
2023/01/17 06:08:12;;;;;;;4.90;2.90;;;2.10;74.50;;;5.46;47.69;94889.22;5030356;28;20080;-41
2023/01/17 06:10:39;;;;;;;5.30;2.73;;;2.10;74.70;;;5.45;47.10;94889.44;5029977;28;20041;-41
2023/01/17 06:13:11;;;;;;;3.70;2.43;;;2.10;74.70;;;5.44;46.95;94882.53;5032302;28;20116;-41
2023/01/17 06:15:39;;;;;;;5.90;2.47;;;2.10;74.80;;;5.42;46.94;94885.34;5030776;28;20057;-41
2023/01/17 06:18:13;;;;;;;7.67;4.03;;;2.10;75.30;;;5.41;47.61;94885.53;5030936;28;20071;-41
2023/01/17 06:20:42;;;;;;;7.60;4.13;;;2.00;76.20;;;5.38;47.83;94880.69;5030521;28;20045;-41
2023/01/17 06:23:12;;;;;;;22.97;13.50;;;2.00;77.30;;;5.34;47.83;94874.97;5030994;28;20497;-41
2023/01/17 06:25:43;;;;;;;319.73;146.13;;;1.90;78.10;;;5.30;48.00;94876.38;5030709;28;20045;-41
2023/01/17 06:28:14;;;;;;;65.83;36.40;;;1.90;78.70;;;5.23;47.70;94867.63;5030661;28;20539;-41
2023/01/17 06:30:42;;;;;;;31.47;19.27;;;1.80;79.40;;;5.16;49.02;94859.69;5030411;28;20045;-41
2023/01/17 06:33:11;;;;;;;20.70;15.77;;;1.70;79.90;;;5.15;48.16;94862.50;5031921;28;20042;-41
2023/01/17 06:35:46;;;;;;;61.23;27.70;;;1.70;79.70;;;5.11;48.39;94864.72;5031498;28;20492;-40
2023/01/17 06:38:14;;;;;;;42.43;20.73;;;1.70;79.30;;;5.08;48.57;94862.50;5031810;28;20527;-40
2023/01/17 06:40:42;;;;;;;13.43;8.87;;;1.70;79.10;;;5.08;47.96;94863.28;5031241;28;20045;-41
2023/01/17 06:43:09;;;;;;;17.93;10.60;;;1.70;78.30;;;5.06;48.03;94857.41;5031574;28;20049;-41
2023/01/17 06:45:37;;;;;;;33.70;16.87;;;1.60;76.80;;;5.07;47.48;94855.56;5030422;28;20056;-41
2023/01/17 06:48:06;;;;;;;31.77;16.00;;;1.70;75.20;;;5.09;47.44;94866.75;5031486;28;20398;-40
2023/01/17 06:50:34;;;;;;;36.03;17.97;;;1.70;74.40;;;5.07;47.25;94874.03;5031304;28;20061;-40
2023/01/17 06:53:06;;;;;;;27.70;13.37;;;1.70;73.10;;;5.11;47.06;94872.63;5031547;28;20056;-41
2023/01/17 06:55:36;;;;;;;56.00;26.67;;;1.70;73.00;;;5.08;47.06;94876.47;5031044;28;20045;-40
2023/01/17 06:58:03;;;;;;;41.90;19.33;;;1.70;72.50;;;5.03;47.22;94865.69;5023903;28;20053;-40
2023/01/17 07:00:33;;;;;;;27.37;10.63;;;1.70;72.80;;;5.04;46.74;94861.22;5031143;28;20064;-41
2023/01/17 07:03:02;;;;;;;24.63;9.23;;;1.70;73.00;;;5.07;46.62;94863.50;5031363;28;20057;-40
2023/01/17 07:05:30;;;;;;;12.70;6.90;;;1.70;73.20;;;5.10;46.98;94857.84;5031139;28;20050;-40
2023/01/17 07:07:58;;;;;;;7.37;3.07;;;1.80;72.70;;;5.13;46.81;94852.97;5031138;28;20080;-42
2023/01/17 07:10:25;;;;;;;3.73;2.30;;;1.80;72.20;;;5.20;47.28;94853.00;5029344;28;20042;-41
2023/01/17 07:12:58;;;;;;;3.43;1.60;;;1.90;72.10;;;5.24;46.80;94851.59;5030935;28;20037;-41
2023/01/17 07:15:26;;;;;;;2.40;1.47;;;1.90;72.20;;;5.30;46.66;94853.44;5029921;28;20449;-41
2023/01/17 07:17:54;;;;;;;2.00;1.50;;;2.00;71.90;;;5.31;46.53;94860.38;5029911;28;20033;-40
2023/01/17 07:20:22;;;;;;;3.40;1.47;;;2.00;72.40;;;5.34;46.66;94864.44;5030807;28;20049;-40
2023/01/17 07:22:49;;;;;;;3.00;1.47;;;2.00;73.40;;;5.37;46.71;94861.41;5030702;28;20048;-41
2023/01/17 07:25:18;;;;;;;2.07;1.40;;;2.00;74.70;;;5.38;47.25;94852.47;5031296;28;20220;-40
2023/01/17 07:27:46;;;;;;;2.30;1.30;;;2.10;75.80;;;5.39;47.03;94854.09;5030955;28;20044;-41
2023/01/17 07:30:14;;;;;;;3.83;1.40;;;2.10;76.70;;;5.42;48.27;94852.88;5030608;28;20041;-41
2023/01/17 07:32:42;;;;;;;2.50;1.80;;;2.10;77.00;;;5.45;48.40;94849.88;5030076;28;20086;-40
2023/01/17 07:35:10;;;;;;;3.23;1.90;;;2.10;77.20;;;5.47;47.81;94845.22;5030651;28;20049;-41
2023/01/17 07:37:38;;;;;;;2.47;1.70;;;2.20;77.70;;;5.46;47.97;94851.47;5030991;28;20484;-42
2023/01/17 07:40:06;;;;;;;1.80;1.37;;;2.10;78.20;;;5.45;47.61;94839.31;5022694;28;20037;-41
2023/01/17 07:42:34;;;;;;;3.73;1.50;;;2.10;78.50;;;5.44;47.89;94842.94;5030768;28;20037;-41
2023/01/17 07:45:02;;;;;;;2.97;2.10;;;2.10;78.70;;;5.43;48.64;94833.41;5030165;28;20519;-41
2023/01/17 07:47:32;;;;;;;2.90;1.87;;;2.10;79.10;;;5.42;48.00;94837.88;5030772;28;20042;-41
2023/01/17 07:50:00;;;;;;;3.17;1.77;;;2.00;79.00;;;5.40;48.03;94834.63;5030473;28;20177;-41
2023/01/17 07:52:28;;;;;;;3.07;1.63;;;2.00;79.30;;;5.40;48.28;94825.88;5029374;28;20052;-41
2023/01/17 07:54:56;;;;;;;2.50;1.63;;;2.00;79.60;;;5.38;48.74;94833.19;5030699;28;20045;-41
2023/01/17 07:57:24;;;;;;;3.90;1.63;;;2.00;79.90;;;5.36;48.16;94833.38;5029382;28;20057;-40
2023/01/17 07:59:51;;;;;;;3.13;1.60;;;1.90;80.10;;;5.36;48.48;94832.56;5029010;28;20056;-40
2023/01/17 08:02:22;;;;;;;3.20;1.57;;;1.90;80.20;;;5.33;48.58;94833.75;5030483;28;20042;-41
2023/01/17 08:04:50;;;;;;;2.90;1.90;;;1.90;80.60;;;5.33;48.61;94831.97;5027089;28;20037;-41
2023/01/17 08:07:18;;;;;;;4.20;1.57;;;1.90;80.70;;;5.33;49.18;94839.88;5028574;28;20041;-40
2023/01/17 08:09:48;;;;;;;2.70;1.23;;;1.90;80.60;;;5.34;48.69;94830.13;5030046;28;20053;-41
2023/01/17 08:12:16;;;;;;;2.37;1.60;;;1.90;81.60;;;5.33;48.91;94837.25;5030042;28;20045;-41
2023/01/17 08:14:44;;;;;;;3.03;1.50;;;1.90;80.80;;;5.37;48.46;94836.81;5028388;28;20421;-40
2023/01/17 08:17:15;;;;;;;4.63;1.57;;;2.00;80.80;;;5.40;48.94;94839.88;5030434;28;20058;-40
2023/01/17 08:19:43;;;;;;;2.03;1.40;;;2.10;80.40;;;5.40;48.82;94839.09;5028859;28;20052;-41
2023/01/17 08:22:11;;;;;;;3.37;1.50;;;2.10;80.00;;;5.42;48.71;94827.31;5030345;28;20041;-41
2023/01/17 08:24:39;;;;;;;3.07;2.33;;;2.20;79.70;;;5.47;48.70;94832.00;5030441;28;20512;-41
2023/01/17 08:27:07;;;;;;;1.73;1.13;;;2.20;79.70;;;5.52;49.04;94829.56;5029153;28;20041;-41
2023/01/17 08:29:36;;;;;;;1.93;1.20;;;2.20;79.90;;;5.56;48.86;94824.72;5029687;28;20041;-41
2023/01/17 08:32:04;;;;;;;1.77;1.30;;;2.20;80.20;;;5.61;49.16;94825.75;5028914;28;20044;-41
2023/01/17 08:34:32;;;;;;;3.20;1.70;;;2.20;80.20;;;5.68;49.40;94823.94;5031429;28;20038;-41
2023/01/17 08:37:00;;;;;;;1.40;1.20;;;2.30;80.10;;;5.72;48.63;94824.38;5032232;28;20060;-40
2023/01/17 08:39:28;;;;;;;3.77;1.50;;;2.40;79.50;;;5.76;48.86;94824.75;5033489;28;20413;-41
2023/01/17 08:41:56;;;;;;;2.87;1.40;;;2.50;79.50;;;5.82;49.34;94829.25;5033403;28;20048;-40
2023/01/17 08:44:24;;;;;;;1.30;1.17;;;2.60;79.30;;;5.87;48.99;94827.66;5033845;28;20527;-41
2023/01/17 08:46:51;;;;;;;2.40;1.20;;;2.60;79.20;;;5.94;49.05;94824.19;5033735;28;20045;-41
2023/01/17 08:49:19;;;;;;;2.53;1.30;;;2.60;78.90;;;5.98;48.36;94820.97;5033580;28;20041;-41
2023/01/17 08:51:47;;;;;;;1.20;1.10;;;2.70;78.70;;;6.04;48.79;94829.91;5033294;28;20042;-40
2023/01/17 08:54:46;;;;;;;1.77;1.40;;;2.70;78.20;;;6.02;48.60;94829.31;5032614;28;20044;-41
2023/01/17 08:57:13;;;;;;;2.77;1.30;;;2.80;78.30;;;6.09;48.99;94825.66;5026113;28;20048;-41
2023/01/17 08:59:41;;;;;;;1.90;1.27;;;2.70;78.70;;;6.16;49.31;94820.38;5031687;28;20064;-41
2023/01/17 09:02:19;;;;;;;1.77;1.10;;;2.80;78.80;;;6.23;49.43;94828.31;5032128;28;20417;-41
2023/01/17 09:04:49;;;;;;;1.17;1.00;;;2.90;78.80;;;6.33;48.79;94822.63;5033593;28;20045;-41
2023/01/17 09:07:19;;;;;;;3.93;1.60;;;3.00;78.80;;;6.41;49.23;94825.06;5033248;28;20092;-40
2023/01/17 09:09:47;;;;;;;2.23;1.33;;;3.10;78.60;;;6.48;48.63;94823.22;5031992;28;20045;-40
2023/01/17 09:12:15;;;;;;;5.17;1.43;;;3.10;78.20;;;6.52;48.44;94821.00;5030040;28;20527;-41
2023/01/17 09:14:43;;;;;;;3.00;1.63;;;3.10;78.30;;;6.55;48.25;94818.72;5029679;28;20048;-41
2023/01/17 09:17:11;;;;;;;4.53;1.67;;;3.20;77.70;;;6.59;48.31;94825.25;5025435;28;20045;-41
2023/01/17 09:19:44;;;;;;;7.53;1.60;;;3.30;77.60;;;6.65;48.79;94824.44;5033210;28;20045;-43
2023/01/17 09:22:14;;;;;;;4.00;1.60;;;3.30;77.50;;;6.70;48.09;94816.69;5024424;28;20049;-41
2023/01/17 09:24:42;;;;;;;6.23;2.63;;;3.30;77.80;;;6.75;48.19;94810.78;5033115;28;20041;-41
2023/01/17 09:27:09;;;;;;;5.87;1.50;;;3.40;77.70;;;6.79;48.02;94806.72;5033164;28;20044;-41
2023/01/17 09:29:37;;;;;;;9.00;2.23;;;3.40;77.60;;;6.80;48.27;94804.88;5031640;28;20496;-41
2023/01/17 09:32:05;;;;;;;4.60;1.37;;;3.40;77.40;;;6.78;48.33;94806.91;5032951;28;20046;-41
2023/01/17 09:34:33;;;;;;;4.03;2.00;;;3.50;77.10;;;6.78;47.85;94807.72;5033125;28;20131;-41
2023/01/17 09:37:00;;;;;;;1.67;1.33;;;3.50;76.90;;;6.79;48.46;94806.72;5032819;28;20409;-40
2023/01/17 09:39:28;;;;;;;2.77;1.67;;;3.50;76.40;;;6.83;48.12;94799.19;5032911;28;20068;-41
2023/01/17 09:42:16;;;;;;;3.07;1.33;;;3.60;76.30;;;6.82;48.18;94798.34;5032776;28;20413;-41
2023/01/17 09:44:50;;;;;;;2.20;1.40;;;3.50;76.30;;;6.84;48.25;94798.16;5031768;28;20045;-41
2023/01/17 09:47:46;;;;;;;1.17;0.97;;;3.50;76.30;;;6.77;48.36;94805.31;5024376;28;20042;-41
2023/01/17 09:50:40;;;;;;;3.20;1.17;;;3.60;75.70;;;6.77;47.85;94800.00;5024349;28;20404;-41
2023/01/17 09:53:21;;;;;;;2.22;1.30;;;3.60;75.30;;;6.79;47.83;94798.78;5031281;28;20049;-41
2023/01/17 09:56:10;;;;;;;1.73;1.30;;;3.50;75.10;;;6.78;47.95;94801.63;5031946;28;20041;-41
2023/01/17 09:58:53;;;;;;;3.10;1.27;;;3.50;75.10;;;6.81;47.74;94798.56;5031237;28;20049;-41
2023/01/17 10:01:46;;;;;;;2.60;1.90;;;3.50;75.80;;;6.81;48.36;94798.56;5024206;28;20041;-41
2023/01/17 10:04:35;;;;;;;2.93;1.60;;;3.60;76.00;;;6.85;48.56;94797.94;5032491;28;20045;-41
2023/01/17 10:07:57;;;;;;;2.47;1.83;;;3.60;76.30;;;6.84;47.89;94792.84;5032219;28;20108;-41
2023/01/17 10:10:41;;;;;;;7.33;3.87;;;3.60;76.60;;;6.86;47.96;94789.00;5024424;28;20042;-40
2023/01/17 10:13:36;;;;;;;12.93;5.70;;;3.60;76.80;;;6.87;48.36;94795.09;5031190;28;20402;-41
2023/01/17 10:16:34;;;;;;;11.40;6.47;;;3.60;76.10;;;6.88;47.81;94789.59;5029910;28;20428;-41
2023/01/17 10:19:35;;;;;;;6.17;3.23;;;3.60;76.10;;;6.92;48.11;94789.19;5031085;28;20057;-41
2023/01/17 10:22:48;;;;;;;7.43;2.90;;;3.70;75.60;;;6.93;47.74;94785.53;5020007;28;20065;-41
2023/01/17 10:25:41;;;;;;;12.20;5.50;;;3.70;76.00;;;7.01;48.24;94780.00;5024306;28;20048;-41
2023/01/17 10:28:22;;;;;;;7.73;4.87;;;3.80;76.00;;;7.02;48.06;94781.63;5031903;28;20463;-41
2023/01/17 10:30:57;;;;;;;6.93;4.77;;;3.80;76.00;;;7.01;48.48;94778.16;5030452;28;20424;-41
2023/01/17 10:33:34;;;;;;;5.70;3.40;;;3.90;76.10;;;7.00;48.44;94778.34;5031034;28;20045;-40
2023/01/17 10:36:09;;;;;;;6.83;4.43;;;3.90;76.30;;;7.07;48.38;94785.25;5030672;28;20037;-42
2023/01/17 10:38:38;;;;;;;9.03;5.07;;;4.00;76.30;;;7.10;47.64;94773.47;5031599;28;20054;-41
2023/01/17 10:41:22;;;;;;;7.30;4.40;;;4.00;75.70;;;7.13;48.04;94770.38;5030466;28;20493;-41
2023/01/17 10:44:36;;;;;;;5.50;2.63;;;4.00;75.40;;;7.14;47.78;94774.66;5017052;28;20045;-41
2023/01/17 10:47:11;;;;;;;2.60;2.28;;;4.00;75.50;;;7.20;47.59;94770.38;5025240;28;20072;-41
2023/01/17 10:49:45;;;;;;;5.20;2.45;;;3.90;75.50;;;7.24;47.75;94764.44;5025395;28;20053;-41
2023/01/17 10:52:57;;;;;;;9.20;3.40;;;3.90;74.90;;;7.21;48.17;94758.75;5022844;28;20500;-41
2023/01/17 10:55:59;;;;;;;4.67;2.57;;;4.00;74.00;;;7.22;47.40;94757.72;5024912;28;20045;-41
2023/01/17 10:58:27;;;;;;;4.13;2.23;;;4.10;73.70;;;7.32;47.14;94757.28;4999967;28;20124;-41
2023/01/17 11:01:06;;;;;;;3.80;2.10;;;4.10;73.70;;;7.37;47.77;94760.13;5024721;28;20038;-41
2023/01/17 11:03:34;;;;;;;4.53;2.23;;;4.20;73.10;;;7.45;46.88;94759.88;5040313;28;20045;-41
2023/01/17 11:06:23;;;;;;;4.33;2.57;;;4.30;72.50;;;7.51;47.16;94763.50;5023035;28;20492;-41
2023/01/17 11:08:58;;;;;;;5.50;1.80;;;4.40;71.20;;;7.61;47.00;94762.00;5025924;28;20065;-41
2023/01/17 11:11:32;;;;;;;4.47;2.73;;;4.50;71.60;;;7.70;46.94;94759.91;5025914;28;20049;-41
2023/01/17 11:14:12;;;;;;;3.83;2.17;;;4.50;71.90;;;7.77;47.03;94755.38;5025245;28;20057;-41
2023/01/17 11:16:40;;;;;;;2.17;1.50;;;4.60;71.20;;;7.83;46.28;94745.75;5025362;28;20096;-42
2023/01/17 11:19:20;;;;;;;4.23;1.90;;;4.60;70.80;;;7.93;46.00;94732.88;5026806;28;20054;-40
2023/01/17 11:21:56;;;;;;;2.50;1.77;;;4.70;70.10;;;8.01;46.31;94726.50;5025407;28;20050;-41
2023/01/17 11:24:47;;;;;;;3.73;1.80;;;4.70;69.40;;;8.04;45.92;94734.78;5018090;28;20493;-41
2023/01/17 11:27:32;;;;;;;3.23;1.97;;;4.80;69.00;;;8.08;45.81;94730.72;5027714;28;20037;-41
2023/01/17 11:30:16;;;;;;;4.63;1.80;;;4.80;68.10;;;8.07;45.51;94728.28;5028716;28;20493;-41
2023/01/17 11:33:44;;;;;;;4.23;1.40;;;4.80;68.70;;;8.00;45.71;94725.66;5030885;28;20045;-41
2023/01/17 11:36:28;;;;;;;4.30;1.50;;;4.70;65.70;;;7.98;45.54;94709.16;5042517;28;20041;-42
2023/01/17 11:39:03;;;;;;;;;;;4.60;67.30;;;7.95;45.75;94700.84;5030597;28;20041;-41
2023/01/17 11:41:37;;;;;;;3.25;1.35;;;4.50;65.60;;;7.94;44.83;94702.69;5030094;28;19932;-45
2023/01/17 11:44:32;;;;;;;2.07;1.73;;;4.50;67.10;;;7.82;45.14;94705.22;5026763;28;20053;-41
2023/01/17 11:47:12;;;;;;;;;;;4.50;66.00;;;7.83;45.33;94698.91;5030353;28;20376;-41
2023/01/17 11:49:43;;;;;;;5.10;1.40;;;4.40;64.80;;;7.87;44.65;94700.09;5030022;28;19936;-41
2023/01/17 11:52:23;;;;;;;1.80;1.00;;;4.40;67.10;;;7.89;45.52;94695.41;5027443;28;20421;-41
2023/01/17 11:54:54;;;;;;;1.90;1.20;;;4.60;67.90;;;7.97;45.19;94693.47;5025474;28;20046;-41
2023/01/17 11:57:26;;;;;;;5.27;1.80;;;4.60;68.10;;;8.04;45.11;94683.66;5018356;28;20057;-41
2023/01/17 12:00:18;;;;;;;4.88;1.20;;;4.70;67.90;;;8.13;45.31;94669.09;5025440;28;20045;-41
2023/01/17 12:03:09;;;;;;;7.63;1.93;;;4.80;66.60;;;8.21;44.73;94665.34;5030519;28;20049;-41
2023/01/17 12:06:21;;;;;;;4.60;1.50;;;4.90;67.00;;;8.25;45.11;94661.22;5024819;28;20398;-40
2023/01/17 12:09:21;;;;;;;2.70;1.60;;;5.00;66.30;;;8.33;44.69;94660.94;5024820;28;20052;-38
2023/01/17 12:16:32;;;;;;;4.13;1.90;;;5.10;63.70;;;8.43;44.77;94639.25;5037620;28;20420;-40
2023/01/17 12:19:17;;;;;;;2.20;1.47;;;5.10;64.20;;;8.47;43.99;94628.00;5013321;28;20053;-40
2023/01/17 12:22:09;;;;;;;3.63;1.57;;;5.20;62.10;;;8.45;44.24;94621.28;5034387;28;20420;-40
2023/01/17 12:24:52;;;;;;;5.63;2.20;;;5.20;63.30;;;8.46;43.44;94613.13;5028373;28;20045;-40